sensor_id;sensor_type;location;lat;lon;timestamp;pressure;altitude;pressure_sealevel;temperature;humidity
25130;BME280;13308;50.860;13.664;2023-12-22T06:29:55;94429.81;;;2.73;100.00
25130;BME280;13308;50.860;13.664;2023-12-22T06:32:21;94448.78;;;2.76;100.00
25130;BME280;13308;50.860;13.664;2023-12-22T06:34:46;94439.00;;;2.79;100.00
25130;BME280;13308;50.860;13.664;2023-12-22T06:37:11;94426.25;;;2.76;100.00
25130;BME280;13308;50.860;13.664;2023-12-22T06:39:37;94405.34;;;2.73;100.00
25130;BME280;13308;50.860;13.664;2023-12-22T06:42:02;94425.59;;;2.72;100.00
25130;BME280;13308;50.860;13.664;2023-12-22T06:44:28;94421.75;;;2.69;100.00
25130;BME280;13308;50.860;13.664;2023-12-22T06:46:56;94422.84;;;2.72;100.00
25130;BME280;13308;50.860;13.664;2023-12-22T06:49:21;94407.03;;;2.67;100.00
25130;BME280;13308;50.860;13.664;2023-12-22T06:51:47;94416.06;;;2.64;100.00
25130;BME280;13308;50.860;13.664;2023-12-22T06:54:13;94403.66;;;2.63;100.00
25130;BME280;13308;50.860;13.664;2023-12-22T06:56:38;94414.88;;;2.65;100.00
25130;BME280;13308;50.860;13.664;2023-12-22T06:59:05;94416.50;;;2.62;100.00
25130;BME280;13308;50.860;13.664;2023-12-22T07:01:34;94420.41;;;2.61;100.00
25130;BME280;13308;50.860;13.664;2023-12-22T07:04:02;94414.19;;;2.61;100.00
25130;BME280;13308;50.860;13.664;2023-12-22T07:06:29;94418.09;;;2.60;100.00
25130;BME280;13308;50.860;13.664;2023-12-22T07:11:36;94440.47;;;2.67;100.00
25130;BME280;13308;50.860;13.664;2023-12-22T07:14:02;94438.53;;;2.68;100.00
25130;BME280;13308;50.860;13.664;2023-12-22T07:16:27;94420.31;;;2.65;100.00
25130;BME280;13308;50.860;13.664;2023-12-22T07:18:53;94435.03;;;2.67;100.00
25130;BME280;13308;50.860;13.664;2023-12-22T07:21:18;94446.31;;;2.66;100.00
25130;BME280;13308;50.860;13.664;2023-12-22T07:23:44;94458.22;;;2.72;100.00
25130;BME280;13308;50.860;13.664;2023-12-22T07:26:09;94463.00;;;2.68;100.00
25130;BME280;13308;50.860;13.664;2023-12-22T07:28:38;94457.56;;;2.68;100.00
25130;BME280;13308;50.860;13.664;2023-12-22T07:31:03;94444.81;;;2.65;100.00
25130;BME280;13308;50.860;13.664;2023-12-22T07:33:31;94467.34;;;2.65;100.00
25130;BME280;13308;50.860;13.664;2023-12-22T07:35:56;94461.63;;;2.60;100.00
25130;BME280;13308;50.860;13.664;2023-12-22T07:38:23;94470.66;;;2.57;100.00
25130;BME280;13308;50.860;13.664;2023-12-22T07:40:48;94469.13;;;2.56;100.00
25130;BME280;13308;50.860;13.664;2023-12-22T07:43:14;94466.75;;;2.58;100.00
25130;BME280;13308;50.860;13.664;2023-12-22T07:45:40;94459.69;;;2.60;100.00
25130;BME280;13308;50.860;13.664;2023-12-22T07:48:05;94449.72;;;2.54;100.00
25130;BME280;13308;50.860;13.664;2023-12-22T07:50:31;94462.47;;;2.41;100.00
25130;BME280;13308;50.860;13.664;2023-12-22T07:52:57;94471.22;;;2.32;100.00
25130;BME280;13308;50.860;13.664;2023-12-22T07:55:24;94465.06;;;2.12;100.00
25130;BME280;13308;50.860;13.664;2023-12-22T07:57:49;94466.47;;;2.01;100.00
25130;BME280;13308;50.860;13.664;2023-12-22T08:00:16;94468.84;;;1.99;100.00
25130;BME280;13308;50.860;13.664;2023-12-22T08:02:41;94473.09;;;2.00;100.00
25130;BME280;13308;50.860;13.664;2023-12-22T08:05:07;94478.38;;;2.07;100.00
25130;BME280;13308;50.860;13.664;2023-12-22T08:07:32;94487.78;;;2.02;100.00
25130;BME280;13308;50.860;13.664;2023-12-22T08:09:57;94476.22;;;1.98;100.00
25130;BME280;13308;50.860;13.664;2023-12-22T08:12:23;94494.25;;;2.08;100.00
25130;BME280;13308;50.860;13.664;2023-12-22T08:14:48;94492.16;;;2.16;100.00
25130;BME280;13308;50.860;13.664;2023-12-22T08:17:13;94502.53;;;2.21;100.00
25130;BME280;13308;50.860;13.664;2023-12-22T08:19:39;94491.22;;;2.22;100.00
25130;BME280;13308;50.860;13.664;2023-12-22T08:22:10;94487.94;;;2.31;100.00
25130;BME280;13308;50.860;13.664;2023-12-22T08:24:38;94501.03;;;2.36;100.00
25130;BME280;13308;50.860;13.664;2023-12-22T08:27:04;94499.50;;;2.35;100.00
25130;BME280;13308;50.860;13.664;2023-12-22T08:29:31;94522.09;;;2.32;100.00
25130;BME280;13308;50.860;13.664;2023-12-22T08:31:56;94516.66;;;2.32;100.00
25130;BME280;13308;50.860;13.664;2023-12-22T08:34:22;94511.22;;;2.32;100.00
25130;BME280;13308;50.860;13.664;2023-12-22T08:36:47;94528.72;;;2.31;100.00
25130;BME280;13308;50.860;13.664;2023-12-22T08:39:12;94521.25;;;2.35;100.00
25130;BME280;13308;50.860;13.664;2023-12-22T08:41:37;94516.53;;;2.39;100.00
25130;BME280;13308;50.860;13.664;2023-12-22T08:44:04;94505.47;;;2.46;100.00
25130;BME280;13308;50.860;13.664;2023-12-22T08:46:30;94513.28;;;2.44;100.00
25130;BME280;13308;50.860;13.664;2023-12-22T08:48:56;94533.34;;;2.50;100.00
25130;BME280;13308;50.860;13.664;2023-12-22T08:51:22;94527.91;;;2.50;100.00
25130;BME280;13308;50.860;13.664;2023-12-22T08:53:47;94540.47;;;2.44;100.00
25130;BME280;13308;50.860;13.664;2023-12-22T08:56:12;94565.97;;;2.50;100.00
25130;BME280;13308;50.860;13.664;2023-12-22T08:58:38;94554.28;;;2.53;100.00
25130;BME280;13308;50.860;13.664;2023-12-22T09:01:03;94558.72;;;2.63;100.00
25130;BME280;13308;50.860;13.664;2023-12-22T09:03:31;94551.41;;;2.60;100.00
25130;BME280;13308;50.860;13.664;2023-12-22T09:05:57;94578.25;;;2.58;100.00
25130;BME280;13308;50.860;13.664;2023-12-22T09:08:22;94587.75;;;2.50;100.00
25130;BME280;13308;50.860;13.664;2023-12-22T09:10:47;94592.19;;;2.60;100.00
25130;BME280;13308;50.860;13.664;2023-12-22T09:13:13;94574.34;;;2.59;100.00
25130;BME280;13308;50.860;13.664;2023-12-22T09:15:38;94578.19;;;2.61;100.00
25130;BME280;13308;50.860;13.664;2023-12-22T09:18:03;94570.44;;;2.60;100.00
25130;BME280;13308;50.860;13.664;2023-12-22T09:20:29;94594.16;;;2.59;100.00
25130;BME280;13308;50.860;13.664;2023-12-22T09:22:55;94606.16;;;2.62;100.00
25130;BME280;13308;50.860;13.664;2023-12-22T09:25:22;94611.53;;;2.65;100.00
25130;BME280;13308;50.860;13.664;2023-12-22T09:27:47;94610.69;;;2.68;100.00
25130;BME280;13308;50.860;13.664;2023-12-22T09:30:13;94627.50;;;2.63;100.00
25130;BME280;13308;50.860;13.664;2023-12-22T09:32:38;94612.34;;;2.62;100.00
25130;BME280;13308;50.860;13.664;2023-12-22T09:35:04;94598.91;;;2.55;100.00
25130;BME280;13308;50.860;13.664;2023-12-22T09:37:29;94603.44;;;2.62;100.00
25130;BME280;13308;50.860;13.664;2023-12-22T09:39:54;94630.97;;;2.64;100.00
25130;BME280;13308;50.860;13.664;2023-12-22T09:42:21;94624.84;;;2.60;100.00
25130;BME280;13308;50.860;13.664;2023-12-22T09:44:49;94620.94;;;2.61;100.00
25130;BME280;13308;50.860;13.664;2023-12-22T09:47:15;94607.84;;;2.91;100.00
25130;BME280;13308;50.860;13.664;2023-12-22T09:49:43;94604.19;;;2.98;100.00
25130;BME280;13308;50.860;13.664;2023-12-22T09:52:10;94620.16;;;2.96;100.00
25130;BME280;13308;50.860;13.664;2023-12-22T09:54:37;94626.56;;;2.89;100.00
25130;BME280;13308;50.860;13.664;2023-12-22T09:57:03;94612.59;;;2.87;100.00
25130;BME280;13308;50.860;13.664;2023-12-22T09:59:28;94621.19;;;2.86;100.00
25130;BME280;13308;50.860;13.664;2023-12-22T10:01:54;94635.97;;;2.85;100.00
25130;BME280;13308;50.860;13.664;2023-12-22T10:04:20;94606.72;;;2.89;100.00
25130;BME280;13308;50.860;13.664;2023-12-22T10:06:47;94611.84;;;2.87;100.00
25130;BME280;13308;50.860;13.664;2023-12-22T10:09:14;94610.44;;;2.79;100.00
25130;BME280;13308;50.860;13.664;2023-12-22T10:11:43;94618.75;;;2.72;100.00
25130;BME280;13308;50.860;13.664;2023-12-22T10:14:09;94617.47;;;2.76;100.00
25130;BME280;13308;50.860;13.664;2023-12-22T10:16:34;94630.50;;;2.69;100.00
25130;BME280;13308;50.860;13.664;2023-12-22T10:19:01;94638.28;;;2.67;100.00
25130;BME280;13308;50.860;13.664;2023-12-22T10:21:26;94648.50;;;2.63;100.00
25130;BME280;13308;50.860;13.664;2023-12-22T10:23:52;94663.41;;;2.55;100.00
25130;BME280;13308;50.860;13.664;2023-12-22T10:26:17;94682.34;;;2.62;100.00
25130;BME280;13308;50.860;13.664;2023-12-22T10:28:42;94686.28;;;2.57;100.00
25130;BME280;13308;50.860;13.664;2023-12-22T10:31:09;94667.00;;;2.52;100.00
25130;BME280;13308;50.860;13.664;2023-12-22T10:33:34;94695.00;;;2.49;100.00
25130;BME280;13308;50.860;13.664;2023-12-22T10:35:59;94675.78;;;2.40;100.00
25130;BME280;13308;50.860;13.664;2023-12-22T10:38:26;94683.97;;;2.17;100.00
25130;BME280;13308;50.860;13.664;2023-12-22T10:40:52;94678.94;;;2.15;100.00
25130;BME280;13308;50.860;13.664;2023-12-22T10:43:18;94666.00;;;2.23;100.00
25130;BME280;13308;50.860;13.664;2023-12-22T10:45:43;94664.47;;;2.22;100.00
25130;BME280;13308;50.860;13.664;2023-12-22T10:48:08;94664.47;;;2.22;100.00
25130;BME280;13308;50.860;13.664;2023-12-22T10:50:35;94674.63;;;2.18;100.00
25130;BME280;13308;50.860;13.664;2023-12-22T10:53:00;94675.34;;;2.22;100.00
25130;BME280;13308;50.860;13.664;2023-12-22T10:55:35;94670.59;;;2.26;100.00
25130;BME280;13308;50.860;13.664;2023-12-22T10:58:47;94684.69;;;2.21;100.00
25130;BME280;13308;50.860;13.664;2023-12-22T11:01:14;94674.44;;;2.09;100.00
25130;BME280;13308;50.860;13.664;2023-12-22T11:03:39;94671.47;;;2.00;100.00
25130;BME280;13308;50.860;13.664;2023-12-22T11:06:11;94669.47;;;2.04;100.00
25130;BME280;13308;50.860;13.664;2023-12-22T11:08:38;94677.75;;;2.16;100.00
25130;BME280;13308;50.860;13.664;2023-12-22T11:11:21;94663.63;;;2.25;100.00
25130;BME280;13308;50.860;13.664;2023-12-22T11:13:50;94665.53;;;2.28;100.00
25130;BME280;13308;50.860;13.664;2023-12-22T11:16:17;94676.03;;;2.26;100.00
25130;BME280;13308;50.860;13.664;2023-12-22T11:18:43;94652.97;;;2.34;100.00
25130;BME280;13308;50.860;13.664;2023-12-22T11:21:09;94674.34;;;2.32;100.00
25130;BME280;13308;50.860;13.664;2023-12-22T11:23:35;94665.22;;;2.42;100.00
25130;BME280;13308;50.860;13.664;2023-12-22T11:26:02;94656.81;;;2.56;100.00
25130;BME280;13308;50.860;13.664;2023-12-22T11:28:31;94648.06;;;2.64;100.00
25130;BME280;13308;50.860;13.664;2023-12-22T11:30:58;94658.41;;;2.53;100.00
25130;BME280;13308;50.860;13.664;2023-12-22T11:33:25;94658.19;;;2.64;100.00
25130;BME280;13308;50.860;13.664;2023-12-22T11:35:54;94637.13;;;2.68;100.00
25130;BME280;13308;50.860;13.664;2023-12-22T11:38:21;94635.22;;;2.84;100.00
25130;BME280;13308;50.860;13.664;2023-12-22T11:40:48;94631.06;;;2.96;100.00
25130;BME280;13308;50.860;13.664;2023-12-22T11:43:14;94615.59;;;2.93;100.00
25130;BME280;13308;50.860;13.664;2023-12-22T11:45:42;94628.53;;;3.05;100.00
25130;BME280;13308;50.860;13.664;2023-12-22T11:48:08;94628.78;;;3.10;100.00
25130;BME280;13308;50.860;13.664;2023-12-22T11:50:34;94619.00;;;3.13;100.00
25130;BME280;13308;50.860;13.664;2023-12-22T11:53:27;94605.47;;;3.09;100.00
25130;BME280;13308;50.860;13.664;2023-12-22T11:56:05;94594.66;;;3.06;100.00
25130;BME280;13308;50.860;13.664;2023-12-22T11:58:43;94594.16;;;3.11;100.00
25130;BME280;13308;50.860;13.664;2023-12-22T12:01:17;94588.56;;;3.18;100.00
25130;BME280;13308;50.860;13.664;2023-12-22T12:03:53;94591.59;;;3.20;100.00
25130;BME280;13308;50.860;13.664;2023-12-22T12:08:58;94588.19;;;3.32;100.00
25130;BME280;13308;50.860;13.664;2023-12-22T12:12:22;94593.13;;;3.37;100.00
25130;BME280;13308;50.860;13.664;2023-12-22T12:14:39;94568.44;;;3.44;100.00
25130;BME280;13308;50.860;13.664;2023-12-22T12:17:07;94583.34;;;3.39;100.00
25130;BME280;13308;50.860;13.664;2023-12-22T12:19:37;94583.19;;;3.46;100.00
25130;BME280;13308;50.860;13.664;2023-12-22T12:22:03;94583.25;;;3.43;100.00
25130;BME280;13308;50.860;13.664;2023-12-22T12:24:29;94577.72;;;3.46;100.00
25130;BME280;13308;50.860;13.664;2023-12-22T12:26:54;94568.44;;;3.44;100.00
25130;BME280;13308;50.860;13.664;2023-12-22T12:29:21;94561.47;;;3.43;100.00
25130;BME280;13308;50.860;13.664;2023-12-22T12:31:47;94573.06;;;3.47;100.00
25130;BME280;13308;50.860;13.664;2023-12-22T12:34:12;94573.91;;;3.44;100.00
25130;BME280;13308;50.860;13.664;2023-12-22T12:36:39;94590.06;;;3.51;100.00
25130;BME280;13308;50.860;13.664;2023-12-22T12:39:07;94586.25;;;3.48;100.00
25130;BME280;13308;50.860;13.664;2023-12-22T12:41:36;94580.03;;;3.48;100.00
25130;BME280;13308;50.860;13.664;2023-12-22T12:44:03;94563.38;;;3.30;100.00
25130;BME280;13308;50.860;13.664;2023-12-22T12:46:37;94573.41;;;3.01;100.00
25130;BME280;13308;50.860;13.664;2023-12-22T12:49:07;94525.72;;;2.45;100.00
25130;BME280;13308;50.860;13.664;2023-12-22T12:51:40;94517.34;;;2.36;100.00
25130;BME280;13308;50.860;13.664;2023-12-22T12:54:06;94565.25;;;2.30;100.00
25130;BME280;13308;50.860;13.664;2023-12-22T12:56:44;94550.63;;;2.04;100.00
25130;BME280;13308;50.860;13.664;2023-12-22T12:59:13;94552.66;;;1.81;100.00
25130;BME280;13308;50.860;13.664;2023-12-22T13:01:39;94570.31;;;1.69;100.00
25130;BME280;13308;50.860;13.664;2023-12-22T13:04:05;94567.00;;;1.62;100.00
25130;BME280;13308;50.860;13.664;2023-12-22T13:06:30;94546.09;;;1.59;100.00
25130;BME280;13308;50.860;13.664;2023-12-22T13:08:56;94553.06;;;1.60;100.00
25130;BME280;13308;50.860;13.664;2023-12-22T13:11:22;94532.16;;;1.57;100.00
25130;BME280;13308;50.860;13.664;2023-12-22T13:13:48;94542.69;;;1.55;100.00
25130;BME280;13308;50.860;13.664;2023-12-22T13:16:18;94550.84;;;1.55;100.00
25130;BME280;13308;50.860;13.664;2023-12-22T13:18:43;94550.47;;;1.53;100.00
25130;BME280;13308;50.860;13.664;2023-12-22T13:21:09;94545.03;;;1.53;100.00
25130;BME280;13308;50.860;13.664;2023-12-22T13:23:34;94561.00;;;1.51;100.00
25130;BME280;13308;50.860;13.664;2023-12-22T13:25:59;94551.38;;;1.46;100.00
25130;BME280;13308;50.860;13.664;2023-12-22T13:28:28;94544.44;;;1.42;100.00
25130;BME280;13308;50.860;13.664;2023-12-22T13:30:54;94565.13;;;1.36;100.00
25130;BME280;13308;50.860;13.664;2023-12-22T13:33:19;94560.53;;;1.33;100.00
25130;BME280;13308;50.860;13.664;2023-12-22T13:35:45;94572.97;;;1.30;100.00
25130;BME280;13308;50.860;13.664;2023-12-22T13:38:12;94573.03;;;1.27;100.00
25130;BME280;13308;50.860;13.664;2023-12-22T13:40:38;94575.44;;;1.21;100.00
25130;BME280;13308;50.860;13.664;2023-12-22T13:43:04;94583.25;;;1.19;100.00
25130;BME280;13308;50.860;13.664;2023-12-22T13:45:31;94563.47;;;1.19;100.00
25130;BME280;13308;50.860;13.664;2023-12-22T13:47:57;94559.22;;;1.18;100.00
25130;BME280;13308;50.860;13.664;2023-12-22T13:50:22;94570.78;;;1.22;100.00
25130;BME280;13308;50.860;13.664;2023-12-22T13:52:49;94563.84;;;1.21;100.00
25130;BME280;13308;50.860;13.664;2023-12-22T13:55:16;94577.03;;;1.19;100.00
25130;BME280;13308;50.860;13.664;2023-12-22T13:57:43;94566.25;;;1.15;100.00
25130;BME280;13308;50.860;13.664;2023-12-22T14:02:47;94560.00;;;1.18;100.00
25130;BME280;13308;50.860;13.664;2023-12-22T14:05:14;94576.69;;;1.17;100.00
25130;BME280;13308;50.860;13.664;2023-12-22T14:07:40;94577.88;;;1.16;100.00
25130;BME280;13308;50.860;13.664;2023-12-22T14:10:06;94586.44;;;1.14;100.00
25130;BME280;13308;50.860;13.664;2023-12-22T14:12:31;94591.09;;;1.14;100.00
25130;BME280;13308;50.860;13.664;2023-12-22T14:14:57;94590.72;;;1.12;100.00
25130;BME280;13308;50.860;13.664;2023-12-22T14:17:22;94596.88;;;1.16;100.00
25130;BME280;13308;50.860;13.664;2023-12-22T14:19:48;94602.59;;;1.21;100.00
25130;BME280;13308;50.860;13.664;2023-12-22T14:22:15;94604.09;;;1.26;100.00
25130;BME280;13308;50.860;13.664;2023-12-22T14:24:40;94590.34;;;1.36;100.00
25130;BME280;13308;50.860;13.664;2023-12-22T14:27:05;94572.84;;;1.37;100.00
25130;BME280;13308;50.860;13.664;2023-12-22T14:29:31;94582.47;;;1.42;100.00
25130;BME280;13308;50.860;13.664;2023-12-22T14:31:56;94581.31;;;1.43;100.00
25130;BME280;13308;50.860;13.664;2023-12-22T14:34:21;94582.00;;;1.47;100.00
25130;BME280;13308;50.860;13.664;2023-12-22T14:36:47;94578.16;;;1.44;100.00
25130;BME280;13308;50.860;13.664;2023-12-22T14:39:12;94577.41;;;1.44;100.00
25130;BME280;13308;50.860;13.664;2023-12-22T14:41:41;94579.66;;;1.49;100.00
25130;BME280;13308;50.860;13.664;2023-12-22T14:44:08;94574.16;;;1.52;100.00
25130;BME280;13308;50.860;13.664;2023-12-22T14:46:37;94571.00;;;1.54;100.00
25130;BME280;13308;50.860;13.664;2023-12-22T14:49:02;94581.75;;;1.61;100.00
25130;BME280;13308;50.860;13.664;2023-12-22T14:51:28;94582.91;;;1.60;100.00
25130;BME280;13308;50.860;13.664;2023-12-22T14:53:53;94571.31;;;1.59;100.00
25130;BME280;13308;50.860;13.664;2023-12-22T14:56:18;94569.28;;;1.63;100.00
25130;BME280;13308;50.860;13.664;2023-12-22T14:58:43;94573.13;;;1.66;100.00
25130;BME280;13308;50.860;13.664;2023-12-22T15:01:12;94575.50;;;1.64;100.00
25130;BME280;13308;50.860;13.664;2023-12-22T15:03:38;94579.72;;;1.65;100.00
25130;BME280;13308;50.860;13.664;2023-12-22T15:06:04;94577.00;;;1.65;100.00
25130;BME280;13308;50.860;13.664;2023-12-22T15:08:29;94584.69;;;1.70;100.00
25130;BME280;13308;50.860;13.664;2023-12-22T15:10:54;94587.34;;;1.73;100.00
25130;BME280;13308;50.860;13.664;2023-12-22T15:13:19;94588.59;;;1.69;100.00
25130;BME280;13308;50.860;13.664;2023-12-22T15:15:45;94591.38;;;1.65;100.00
25130;BME280;13308;50.860;13.664;2023-12-22T15:18:10;94592.63;;;1.61;100.00
25130;BME280;13308;50.860;13.664;2023-12-22T15:20:36;94590.59;;;1.65;100.00
25130;BME280;13308;50.860;13.664;2023-12-22T15:23:01;94600.78;;;1.61;100.00
25130;BME280;13308;50.860;13.664;2023-12-22T15:25:26;94593.78;;;1.60;100.00
25130;BME280;13308;50.860;13.664;2023-12-22T15:27:52;94581.94;;;1.50;100.00
25130;BME280;13308;50.860;13.664;2023-12-22T15:30:17;94576.94;;;1.49;100.00
25130;BME280;13308;50.860;13.664;2023-12-22T15:32:42;94569.47;;;1.53;100.00
25130;BME280;13308;50.860;13.664;2023-12-22T15:35:08;94561.00;;;1.51;100.00
25130;BME280;13308;50.860;13.664;2023-12-22T15:37:33;94552.50;;;1.49;100.00
25130;BME280;13308;50.860;13.664;2023-12-22T15:39:58;94554.84;;;1.47;100.00
25130;BME280;13308;50.860;13.664;2023-12-22T15:42:24;94559.53;;;1.46;100.00
25130;BME280;13308;50.860;13.664;2023-12-22T15:44:49;94563.00;;;1.47;100.00
25130;BME280;13308;50.860;13.664;2023-12-22T15:47:14;94557.94;;;1.49;100.00
25130;BME280;13308;50.860;13.664;2023-12-22T15:49:40;94556.31;;;1.51;100.00
25130;BME280;13308;50.860;13.664;2023-12-22T15:52:05;94565.94;;;1.56;100.00
25130;BME280;13308;50.860;13.664;2023-12-22T15:54:31;94559.31;;;1.57;100.00
25130;BME280;13308;50.860;13.664;2023-12-22T15:56:56;94553.19;;;1.53;100.00
25130;BME280;13308;50.860;13.664;2023-12-22T15:59:21;94562.44;;;1.55;100.00
25130;BME280;13308;50.860;13.664;2023-12-22T16:01:50;94557.09;;;1.52;100.00
25130;BME280;13308;50.860;13.664;2023-12-22T16:04:16;94552.84;;;1.51;100.00
25130;BME280;13308;50.860;13.664;2023-12-22T16:06:42;94543.16;;;1.50;100.00
25130;BME280;13308;50.860;13.664;2023-12-22T16:09:07;94551.66;;;1.52;100.00
25130;BME280;13308;50.860;13.664;2023-12-22T16:11:32;94543.16;;;1.50;100.00
25130;BME280;13308;50.860;13.664;2023-12-22T16:13:58;94550.13;;;1.51;100.00
25130;BME280;13308;50.860;13.664;2023-12-22T16:16:23;94564.50;;;1.48;100.00
25130;BME280;13308;50.860;13.664;2023-12-22T16:18:48;94564.97;;;1.46;100.00
25130;BME280;13308;50.860;13.664;2023-12-22T16:21:14;94559.53;;;1.46;100.00
25130;BME280;13308;50.860;13.664;2023-12-22T16:23:39;94554.09;;;1.46;100.00
25130;BME280;13308;50.860;13.664;2023-12-22T16:26:04;94564.19;;;1.46;100.00
25130;BME280;13308;50.860;13.664;2023-12-22T16:28:32;94561.13;;;1.44;100.00
25130;BME280;13308;50.860;13.664;2023-12-22T16:30:58;94558.03;;;1.42;100.00
25130;BME280;13308;50.860;13.664;2023-12-22T16:33:24;94555.81;;;1.37;100.00
25130;BME280;13308;50.860;13.664;2023-12-22T16:35:49;94552.72;;;1.35;100.00
25130;BME280;13308;50.860;13.664;2023-12-22T16:38:15;94561.28;;;1.33;100.00
25130;BME280;13308;50.860;13.664;2023-12-22T16:40:40;94566.69;;;1.37;100.00
25130;BME280;13308;50.860;13.664;2023-12-22T16:43:07;94567.44;;;1.37;100.00
25130;BME280;13308;50.860;13.664;2023-12-22T16:45:32;94570.44;;;1.43;100.00
25130;BME280;13308;50.860;13.664;2023-12-22T16:47:58;94572.78;;;1.41;100.00
25130;BME280;13308;50.860;13.664;2023-12-22T16:50:25;94579.69;;;1.45;100.00
25130;BME280;13308;50.860;13.664;2023-12-22T16:52:50;94582.00;;;1.47;100.00
25130;BME280;13308;50.860;13.664;2023-12-22T16:55:16;94588.13;;;1.51;100.00
25130;BME280;13308;50.860;13.664;2023-12-22T16:57:43;94579.22;;;1.50;100.00
25130;BME280;13308;50.860;13.664;2023-12-22T17:00:09;94583.53;;;1.48;100.00
25130;BME280;13308;50.860;13.664;2023-12-22T17:02:35;94582.41;;;1.45;100.00
25130;BME280;13308;50.860;13.664;2023-12-22T17:05:01;94580.00;;;1.51;100.00
25130;BME280;13308;50.860;13.664;2023-12-22T17:07:26;94592.78;;;1.50;100.00
25130;BME280;13308;50.860;13.664;2023-12-22T17:09:52;94599.72;;;1.55;100.00
25130;BME280;13308;50.860;13.664;2023-12-22T17:12:17;94595.88;;;1.52;100.00
25130;BME280;13308;50.860;13.664;2023-12-22T17:14:43;94587.81;;;1.49;100.00
25130;BME280;13308;50.860;13.664;2023-12-22T17:17:08;94587.84;;;1.45;100.00
25130;BME280;13308;50.860;13.664;2023-12-22T17:19:33;94591.47;;;1.39;100.00
25130;BME280;13308;50.860;13.664;2023-12-22T17:22:02;94594.63;;;1.34;100.00
25130;BME280;13308;50.860;13.664;2023-12-22T17:24:28;94608.03;;;1.21;100.00
25130;BME280;13308;50.860;13.664;2023-12-22T17:26:53;94605.72;;;1.20;100.00
25130;BME280;13308;50.860;13.664;2023-12-22T17:29:19;94608.03;;;1.21;100.00
25130;BME280;13308;50.860;13.664;2023-12-22T17:31:45;94608.13;;;1.14;100.00
25130;BME280;13308;50.860;13.664;2023-12-22T17:34:10;94605.81;;;1.13;100.00
25130;BME280;13308;50.860;13.664;2023-12-22T17:36:35;94613.28;;;1.09;100.00
25130;BME280;13308;50.860;13.664;2023-12-22T17:39:01;94629.97;;;1.07;100.00
25130;BME280;13308;50.860;13.664;2023-12-22T17:41:26;94605.94;;;1.06;100.00
25130;BME280;13308;50.860;13.664;2023-12-22T17:43:52;94592.03;;;1.04;100.00
25130;BME280;13308;50.860;13.664;2023-12-22T17:46:17;94592.03;;;1.04;100.00
25130;BME280;13308;50.860;13.664;2023-12-22T17:48:43;94597.44;;;1.04;100.00
25130;BME280;13308;50.860;13.664;2023-12-22T17:51:08;94588.13;;;1.05;100.00
25130;BME280;13308;50.860;13.664;2023-12-22T17:53:34;94598.22;;;1.04;100.00
25130;BME280;13308;50.860;13.664;2023-12-22T17:55:59;94600.50;;;1.06;100.00
25130;BME280;13308;50.860;13.664;2023-12-22T17:58:25;94611.38;;;1.06;100.00
25130;BME280;13308;50.860;13.664;2023-12-22T18:00:51;94600.16;;;1.04;100.00
25130;BME280;13308;50.860;13.664;2023-12-22T18:03:16;94611.38;;;1.06;100.00
25130;BME280;13308;50.860;13.664;2023-12-22T18:05:42;94609.84;;;1.05;100.00
25130;BME280;13308;50.860;13.664;2023-12-22T18:08:09;94607.13;;;1.05;100.00
25130;BME280;13308;50.860;13.664;2023-12-22T18:10:35;94618.81;;;1.02;100.00
25130;BME280;13308;50.860;13.664;2023-12-22T18:13:00;94627.69;;;1.02;100.00
25130;BME280;13308;50.860;13.664;2023-12-22T18:15:26;94616.91;;;0.99;100.00
25130;BME280;13308;50.860;13.664;2023-12-22T18:17:51;94616.16;;;0.98;100.00
25130;BME280;13308;50.860;13.664;2023-12-22T18:20:17;94611.13;;;0.97;100.00
25130;BME280;13308;50.860;13.664;2023-12-22T18:22:42;94620.47;;;0.96;100.00
25130;BME280;13308;50.860;13.664;2023-12-22T18:25:07;94627.03;;;0.95;100.00
25130;BME280;13308;50.860;13.664;2023-12-22T18:27:36;94626.22;;;0.98;100.00
25130;BME280;13308;50.860;13.664;2023-12-22T18:30:03;94628.16;;;0.97;100.00
25130;BME280;13308;50.860;13.664;2023-12-22T18:32:29;94630.13;;;0.97;100.00
25130;BME280;13308;50.860;13.664;2023-12-22T18:34:55;94626.28;;;0.94;100.00
25130;BME280;13308;50.860;13.664;2023-12-22T18:37:20;94625.88;;;0.96;100.00
25130;BME280;13308;50.860;13.664;2023-12-22T18:39:45;94632.91;;;0.93;100.00
25130;BME280;13308;50.860;13.664;2023-12-22T18:42:11;94627.88;;;0.92;100.00
25130;BME280;13308;50.860;13.664;2023-12-22T18:44:36;94624.75;;;0.93;100.00
25130;BME280;13308;50.860;13.664;2023-12-22T18:47:02;94623.56;;;0.94;100.00
25130;BME280;13308;50.860;13.664;2023-12-22T18:49:27;94630.88;;;0.97;100.00
25130;BME280;13308;50.860;13.664;2023-12-22T18:51:52;94627.41;;;0.97;100.00
25130;BME280;13308;50.860;13.664;2023-12-22T18:54:18;94620.47;;;0.96;100.00
25130;BME280;13308;50.860;13.664;2023-12-22T18:56:44;94622.44;;;0.92;100.00
25130;BME280;13308;50.860;13.664;2023-12-22T18:59:11;94615.50;;;0.91;100.00
25130;BME280;13308;50.860;13.664;2023-12-22T19:01:36;94612.31;;;0.96;100.00
25130;BME280;13308;50.860;13.664;2023-12-22T19:04:02;94608.47;;;0.93;100.00
25130;BME280;13308;50.860;13.664;2023-12-22T19:06:27;94618.19;;;0.91;100.00
25130;BME280;13308;50.860;13.664;2023-12-22T19:08:52;94617.78;;;0.92;100.00
25130;BME280;13308;50.860;13.664;2023-12-22T19:11:18;94611.94;;;0.94;100.00
25130;BME280;13308;50.860;13.664;2023-12-22T19:13:43;94605.44;;;0.88;100.00
25130;BME280;13308;50.860;13.664;2023-12-22T19:16:08;94600.00;;;0.88;100.00
25130;BME280;13308;50.860;13.664;2023-12-22T19:18:34;94610.13;;;0.87;100.00
25130;BME280;13308;50.860;13.664;2023-12-22T19:21:00;94626.28;;;0.94;100.00
25130;BME280;13308;50.860;13.664;2023-12-22T19:23:25;94639.84;;;0.94;100.00